sensor_id;sensor_type;location;lat;lon;timestamp;temperature;humidity
21176;DHT22;10746;50.178;8.186;2023-04-10T00:00:21;6.70;99.90
21176;DHT22;10746;50.178;8.186;2023-04-10T00:02:48;6.60;99.90
21176;DHT22;10746;50.178;8.186;2023-04-10T00:05:16;6.40;99.90
21176;DHT22;10746;50.178;8.186;2023-04-10T00:07:43;6.20;99.90
21176;DHT22;10746;50.178;8.186;2023-04-10T00:10:09;6.10;99.90
21176;DHT22;10746;50.178;8.186;2023-04-10T00:12:36;5.90;99.90
21176;DHT22;10746;50.178;8.186;2023-04-10T00:15:03;6.00;99.90
21176;DHT22;10746;50.178;8.186;2023-04-10T00:17:30;6.00;99.90
21176;DHT22;10746;50.178;8.186;2023-04-10T00:19:57;6.10;99.90
21176;DHT22;10746;50.178;8.186;2023-04-10T00:22:26;6.00;99.90
21176;DHT22;10746;50.178;8.186;2023-04-10T00:24:53;6.00;99.90
21176;DHT22;10746;50.178;8.186;2023-04-10T00:27:19;6.00;99.90
21176;DHT22;10746;50.178;8.186;2023-04-10T00:29:46;6.10;99.90
21176;DHT22;10746;50.178;8.186;2023-04-10T00:32:13;5.90;99.90
21176;DHT22;10746;50.178;8.186;2023-04-10T00:34:40;5.80;99.90
21176;DHT22;10746;50.178;8.186;2023-04-10T00:37:06;5.60;99.90
21176;DHT22;10746;50.178;8.186;2023-04-10T00:39:35;5.40;99.90
21176;DHT22;10746;50.178;8.186;2023-04-10T00:42:01;5.40;99.90
21176;DHT22;10746;50.178;8.186;2023-04-10T00:44:28;5.30;99.90
21176;DHT22;10746;50.178;8.186;2023-04-10T00:46:55;5.30;99.90
21176;DHT22;10746;50.178;8.186;2023-04-10T00:49:22;5.30;99.90
21176;DHT22;10746;50.178;8.186;2023-04-10T00:51:48;5.30;99.90
21176;DHT22;10746;50.178;8.186;2023-04-10T00:54:15;5.40;99.90
21176;DHT22;10746;50.178;8.186;2023-04-10T00:56:44;5.30;99.90
21176;DHT22;10746;50.178;8.186;2023-04-10T00:59:11;5.20;99.90
21176;DHT22;10746;50.178;8.186;2023-04-10T01:01:38;5.20;99.90
21176;DHT22;10746;50.178;8.186;2023-04-10T01:04:05;5.20;99.90
21176;DHT22;10746;50.178;8.186;2023-04-10T01:06:43;5.30;99.90
21176;DHT22;10746;50.178;8.186;2023-04-10T01:09:19;5.20;99.90
21176;DHT22;10746;50.178;8.186;2023-04-10T01:11:54;5.10;99.90
21176;DHT22;10746;50.178;8.186;2023-04-10T01:14:31;5.00;99.90
21176;DHT22;10746;50.178;8.186;2023-04-10T01:17:03;5.00;99.90
21176;DHT22;10746;50.178;8.186;2023-04-10T01:19:52;5.00;99.90
21176;DHT22;10746;50.178;8.186;2023-04-10T01:22:27;5.10;99.90
21176;DHT22;10746;50.178;8.186;2023-04-10T01:25:04;5.10;99.90
21176;DHT22;10746;50.178;8.186;2023-04-10T01:27:45;5.10;99.90
21176;DHT22;10746;50.178;8.186;2023-04-10T01:30:21;5.10;99.90
21176;DHT22;10746;50.178;8.186;2023-04-10T01:32:49;5.30;99.90
21176;DHT22;10746;50.178;8.186;2023-04-10T01:35:17;5.50;99.90
21176;DHT22;10746;50.178;8.186;2023-04-10T01:37:47;5.50;99.90
21176;DHT22;10746;50.178;8.186;2023-04-10T01:40:18;5.30;99.90
21176;DHT22;10746;50.178;8.186;2023-04-10T01:42:49;5.10;99.90
21176;DHT22;10746;50.178;8.186;2023-04-10T01:45:20;5.10;99.90
21176;DHT22;10746;50.178;8.186;2023-04-10T01:47:48;5.20;99.90
21176;DHT22;10746;50.178;8.186;2023-04-10T01:50:16;5.40;99.90
21176;DHT22;10746;50.178;8.186;2023-04-10T01:52:44;5.60;99.90
21176;DHT22;10746;50.178;8.186;2023-04-10T01:55:12;5.60;99.90
21176;DHT22;10746;50.178;8.186;2023-04-10T01:57:39;5.70;99.90
21176;DHT22;10746;50.178;8.186;2023-04-10T02:00:07;5.80;99.90
21176;DHT22;10746;50.178;8.186;2023-04-10T02:02:35;5.80;99.90
21176;DHT22;10746;50.178;8.186;2023-04-10T02:05:02;5.80;99.90
21176;DHT22;10746;50.178;8.186;2023-04-10T02:07:35;5.80;99.90
21176;DHT22;10746;50.178;8.186;2023-04-10T02:10:09;5.80;99.90
21176;DHT22;10746;50.178;8.186;2023-04-10T02:12:40;5.70;99.90
21176;DHT22;10746;50.178;8.186;2023-04-10T02:15:08;5.60;99.90
21176;DHT22;10746;50.178;8.186;2023-04-10T02:17:38;5.60;99.90
21176;DHT22;10746;50.178;8.186;2023-04-10T02:20:07;5.60;99.90
21176;DHT22;10746;50.178;8.186;2023-04-10T02:22:35;5.70;99.90
21176;DHT22;10746;50.178;8.186;2023-04-10T02:25:03;5.80;99.90
21176;DHT22;10746;50.178;8.186;2023-04-10T02:27:33;5.70;99.90
21176;DHT22;10746;50.178;8.186;2023-04-10T02:30:01;5.70;99.90
21176;DHT22;10746;50.178;8.186;2023-04-10T02:32:28;5.50;99.90
21176;DHT22;10746;50.178;8.186;2023-04-10T02:34:57;5.60;99.90
21176;DHT22;10746;50.178;8.186;2023-04-10T02:37:24;5.30;99.90
21176;DHT22;10746;50.178;8.186;2023-04-10T02:39:51;5.20;99.90
21176;DHT22;10746;50.178;8.186;2023-04-10T02:42:19;5.20;99.90
21176;DHT22;10746;50.178;8.186;2023-04-10T02:44:46;5.20;99.90
21176;DHT22;10746;50.178;8.186;2023-04-10T02:47:12;5.10;99.90
21176;DHT22;10746;50.178;8.186;2023-04-10T02:49:40;5.10;99.90
21176;DHT22;10746;50.178;8.186;2023-04-10T02:52:08;5.20;99.90
21176;DHT22;10746;50.178;8.186;2023-04-10T02:54:35;5.10;99.90
21176;DHT22;10746;50.178;8.186;2023-04-10T02:57:01;5.10;99.90
21176;DHT22;10746;50.178;8.186;2023-04-10T02:59:29;5.10;99.90
21176;DHT22;10746;50.178;8.186;2023-04-10T03:01:56;5.00;99.90
21176;DHT22;10746;50.178;8.186;2023-04-10T03:04:22;5.00;99.90
21176;DHT22;10746;50.178;8.186;2023-04-10T03:06:49;4.90;99.90
21176;DHT22;10746;50.178;8.186;2023-04-10T03:09:17;4.90;99.90
21176;DHT22;10746;50.178;8.186;2023-04-10T03:11:44;5.00;99.90
21176;DHT22;10746;50.178;8.186;2023-04-10T03:14:11;5.00;99.90
21176;DHT22;10746;50.178;8.186;2023-04-10T03:16:38;4.90;99.90
21176;DHT22;10746;50.178;8.186;2023-04-10T03:19:04;4.80;99.90
21176;DHT22;10746;50.178;8.186;2023-04-10T03:21:31;4.70;99.90
21176;DHT22;10746;50.178;8.186;2023-04-10T03:23:58;4.60;99.90
21176;DHT22;10746;50.178;8.186;2023-04-10T03:26:27;4.80;99.90
21176;DHT22;10746;50.178;8.186;2023-04-10T03:28:53;5.00;99.90
21176;DHT22;10746;50.178;8.186;2023-04-10T03:31:20;5.20;99.90
21176;DHT22;10746;50.178;8.186;2023-04-10T03:33:47;5.40;99.90
21176;DHT22;10746;50.178;8.186;2023-04-10T03:36:14;5.70;99.90
21176;DHT22;10746;50.178;8.186;2023-04-10T03:38:41;5.70;99.90
21176;DHT22;10746;50.178;8.186;2023-04-10T03:41:08;6.10;99.90
21176;DHT22;10746;50.178;8.186;2023-04-10T03:43:36;6.10;99.90
21176;DHT22;10746;50.178;8.186;2023-04-10T03:46:02;6.10;99.90
21176;DHT22;10746;50.178;8.186;2023-04-10T03:48:30;6.20;99.90
21176;DHT22;10746;50.178;8.186;2023-04-10T03:50:57;6.30;99.90
21176;DHT22;10746;50.178;8.186;2023-04-10T03:53:24;6.40;99.90
21176;DHT22;10746;50.178;8.186;2023-04-10T03:55:51;6.40;99.90
21176;DHT22;10746;50.178;8.186;2023-04-10T03:58:18;6.30;99.90
21176;DHT22;10746;50.178;8.186;2023-04-10T04:00:46;6.30;99.90
21176;DHT22;10746;50.178;8.186;2023-04-10T04:03:13;6.30;99.90
21176;DHT22;10746;50.178;8.186;2023-04-10T04:05:40;6.30;99.90
21176;DHT22;10746;50.178;8.186;2023-04-10T04:08:06;6.40;99.90
21176;DHT22;10746;50.178;8.186;2023-04-10T04:10:33;6.20;99.90
21176;DHT22;10746;50.178;8.186;2023-04-10T04:13:00;6.10;99.90
21176;DHT22;10746;50.178;8.186;2023-04-10T04:15:27;6.00;99.90
21176;DHT22;10746;50.178;8.186;2023-04-10T04:17:55;5.90;99.90
21176;DHT22;10746;50.178;8.186;2023-04-10T04:20:22;6.00;99.90
21176;DHT22;10746;50.178;8.186;2023-04-10T04:22:49;6.00;99.90
21176;DHT22;10746;50.178;8.186;2023-04-10T04:25:16;6.00;99.90
21176;DHT22;10746;50.178;8.186;2023-04-10T04:27:44;5.90;99.90
21176;DHT22;10746;50.178;8.186;2023-04-10T04:30:11;5.90;99.90
21176;DHT22;10746;50.178;8.186;2023-04-10T04:32:38;5.80;99.90
21176;DHT22;10746;50.178;8.186;2023-04-10T04:35:07;5.80;99.90
21176;DHT22;10746;50.178;8.186;2023-04-10T04:37:34;5.90;99.90
21176;DHT22;10746;50.178;8.186;2023-04-10T04:40:01;5.90;99.90
21176;DHT22;10746;50.178;8.186;2023-04-10T04:42:28;5.90;99.90
21176;DHT22;10746;50.178;8.186;2023-04-10T04:44:55;6.00;99.90
21176;DHT22;10746;50.178;8.186;2023-04-10T04:47:22;6.00;99.90
21176;DHT22;10746;50.178;8.186;2023-04-10T04:49:49;6.10;99.90
21176;DHT22;10746;50.178;8.186;2023-04-10T04:52:17;6.10;99.90
21176;DHT22;10746;50.178;8.186;2023-04-10T04:54:44;6.10;99.90
21176;DHT22;10746;50.178;8.186;2023-04-10T04:57:10;6.20;99.90
21176;DHT22;10746;50.178;8.186;2023-04-10T04:59:37;6.20;99.90
21176;DHT22;10746;50.178;8.186;2023-04-10T05:02:04;6.30;99.90
21176;DHT22;10746;50.178;8.186;2023-04-10T05:04:31;6.30;99.90
21176;DHT22;10746;50.178;8.186;2023-04-10T05:06:57;6.30;99.90
21176;DHT22;10746;50.178;8.186;2023-04-10T05:09:26;6.40;99.90
21176;DHT22;10746;50.178;8.186;2023-04-10T05:11:52;6.40;99.90
21176;DHT22;10746;50.178;8.186;2023-04-10T05:14:20;6.40;99.90
21176;DHT22;10746;50.178;8.186;2023-04-10T05:16:47;6.50;99.90
21176;DHT22;10746;50.178;8.186;2023-04-10T05:19:14;6.60;99.90
21176;DHT22;10746;50.178;8.186;2023-04-10T05:21:41;6.40;99.90
21176;DHT22;10746;50.178;8.186;2023-04-10T05:24:08;6.40;99.90
21176;DHT22;10746;50.178;8.186;2023-04-10T05:26:37;6.60;99.90
21176;DHT22;10746;50.178;8.186;2023-04-10T05:29:05;6.70;99.90
21176;DHT22;10746;50.178;8.186;2023-04-10T05:31:32;6.70;99.90
21176;DHT22;10746;50.178;8.186;2023-04-10T05:34:00;6.70;99.90
21176;DHT22;10746;50.178;8.186;2023-04-10T05:36:26;6.70;99.90
21176;DHT22;10746;50.178;8.186;2023-04-10T05:38:53;6.80;99.90
21176;DHT22;10746;50.178;8.186;2023-04-10T05:41:20;6.80;99.90
21176;DHT22;10746;50.178;8.186;2023-04-10T05:43:48;6.80;99.90
21176;DHT22;10746;50.178;8.186;2023-04-10T05:46:15;6.90;99.90
21176;DHT22;10746;50.178;8.186;2023-04-10T05:48:42;6.90;99.90
21176;DHT22;10746;50.178;8.186;2023-04-10T05:51:09;6.90;99.90
21176;DHT22;10746;50.178;8.186;2023-04-10T05:53:36;7.10;99.90
21176;DHT22;10746;50.178;8.186;2023-04-10T05:56:03;7.20;99.90
21176;DHT22;10746;50.178;8.186;2023-04-10T05:58:29;7.30;99.90
21176;DHT22;10746;50.178;8.186;2023-04-10T06:00:57;7.50;99.90
21176;DHT22;10746;50.178;8.186;2023-04-10T06:03:24;7.60;99.90
21176;DHT22;10746;50.178;8.186;2023-04-10T06:05:54;7.70;99.90
21176;DHT22;10746;50.178;8.186;2023-04-10T06:08:22;7.80;99.90
21176;DHT22;10746;50.178;8.186;2023-04-10T06:10:49;8.00;99.90
21176;DHT22;10746;50.178;8.186;2023-04-10T06:13:16;8.00;99.90
21176;DHT22;10746;50.178;8.186;2023-04-10T06:15:43;8.10;99.90
21176;DHT22;10746;50.178;8.186;2023-04-10T06:18:11;8.30;99.90
21176;DHT22;10746;50.178;8.186;2023-04-10T06:20:38;8.30;99.90
21176;DHT22;10746;50.178;8.186;2023-04-10T06:23:04;8.40;99.90
21176;DHT22;10746;50.178;8.186;2023-04-10T06:25:31;8.50;99.90
21176;DHT22;10746;50.178;8.186;2023-04-10T06:27:58;8.70;99.90
21176;DHT22;10746;50.178;8.186;2023-04-10T06:30:25;8.80;99.90
21176;DHT22;10746;50.178;8.186;2023-04-10T06:32:52;9.00;99.90
21176;DHT22;10746;50.178;8.186;2023-04-10T06:35:20;9.10;99.90
21176;DHT22;10746;50.178;8.186;2023-04-10T06:37:47;9.20;99.90
21176;DHT22;10746;50.178;8.186;2023-04-10T06:40:13;9.40;99.90
21176;DHT22;10746;50.178;8.186;2023-04-10T06:42:40;9.50;99.90
21176;DHT22;10746;50.178;8.186;2023-04-10T06:45:08;9.70;99.90
21176;DHT22;10746;50.178;8.186;2023-04-10T06:47:35;9.70;99.90
21176;DHT22;10746;50.178;8.186;2023-04-10T06:50:02;9.80;99.90
21176;DHT22;10746;50.178;8.186;2023-04-10T06:52:31;10.10;99.90
21176;DHT22;10746;50.178;8.186;2023-04-10T06:54:57;10.20;99.90
21176;DHT22;10746;50.178;8.186;2023-04-10T06:57:24;10.20;99.90
21176;DHT22;10746;50.178;8.186;2023-04-10T06:59:51;10.40;99.90
21176;DHT22;10746;50.178;8.186;2023-04-10T07:02:17;10.50;99.90
21176;DHT22;10746;50.178;8.186;2023-04-10T07:04:44;10.40;99.90
21176;DHT22;10746;50.178;8.186;2023-04-10T07:07:11;10.40;99.90
21176;DHT22;10746;50.178;8.186;2023-04-10T07:09:41;10.40;99.90
21176;DHT22;10746;50.178;8.186;2023-04-10T07:12:08;10.40;99.90
21176;DHT22;10746;50.178;8.186;2023-04-10T07:14:35;10.20;99.90
21176;DHT22;10746;50.178;8.186;2023-04-10T07:17:02;10.30;99.90
21176;DHT22;10746;50.178;8.186;2023-04-10T07:19:28;10.20;99.90
21176;DHT22;10746;50.178;8.186;2023-04-10T07:21:55;10.00;99.90
21176;DHT22;10746;50.178;8.186;2023-04-10T07:24:22;10.20;99.90
21176;DHT22;10746;50.178;8.186;2023-04-10T07:26:51;10.60;99.90
21176;DHT22;10746;50.178;8.186;2023-04-10T07:29:17;10.70;99.90
21176;DHT22;10746;50.178;8.186;2023-04-10T07:31:44;11.00;99.90
21176;DHT22;10746;50.178;8.186;2023-04-10T07:34:11;11.10;99.90
21176;DHT22;10746;50.178;8.186;2023-04-10T07:36:38;10.70;99.90
21176;DHT22;10746;50.178;8.186;2023-04-10T07:39:05;10.70;99.90
21176;DHT22;10746;50.178;8.186;2023-04-10T07:41:31;10.60;99.90
21176;DHT22;10746;50.178;8.186;2023-04-10T07:44:01;10.60;99.90
21176;DHT22;10746;50.178;8.186;2023-04-10T07:46:27;10.80;99.90
21176;DHT22;10746;50.178;8.186;2023-04-10T07:48:54;10.60;99.90
21176;DHT22;10746;50.178;8.186;2023-04-10T07:51:21;10.70;99.90
21176;DHT22;10746;50.178;8.186;2023-04-10T07:53:48;10.80;99.90
21176;DHT22;10746;50.178;8.186;2023-04-10T07:56:16;10.80;99.90
21176;DHT22;10746;50.178;8.186;2023-04-10T07:58:43;10.90;99.90
21176;DHT22;10746;50.178;8.186;2023-04-10T08:01:11;11.30;99.90
21176;DHT22;10746;50.178;8.186;2023-04-10T08:03:38;11.10;99.90
21176;DHT22;10746;50.178;8.186;2023-04-10T08:06:06;11.40;99.90
21176;DHT22;10746;50.178;8.186;2023-04-10T08:08:35;11.70;99.90
21176;DHT22;10746;50.178;8.186;2023-04-10T08:11:02;11.80;99.90
21176;DHT22;10746;50.178;8.186;2023-04-10T08:13:28;11.80;99.90
21176;DHT22;10746;50.178;8.186;2023-04-10T08:15:55;11.80;99.90
21176;DHT22;10746;50.178;8.186;2023-04-10T08:18:23;11.80;99.90
21176;DHT22;10746;50.178;8.186;2023-04-10T08:20:50;11.70;99.90
21176;DHT22;10746;50.178;8.186;2023-04-10T08:23:17;11.50;99.90
21176;DHT22;10746;50.178;8.186;2023-04-10T08:25:43;12.00;99.90
21176;DHT22;10746;50.178;8.186;2023-04-10T08:28:10;11.90;99.90
21176;DHT22;10746;50.178;8.186;2023-04-10T08:30:37;11.40;99.90
21176;DHT22;10746;50.178;8.186;2023-04-10T08:33:04;11.80;99.90
21176;DHT22;10746;50.178;8.186;2023-04-10T08:35:32;12.00;99.90
21176;DHT22;10746;50.178;8.186;2023-04-10T08:37:58;12.00;99.90
21176;DHT22;10746;50.178;8.186;2023-04-10T08:40:25;11.60;99.90
21176;DHT22;10746;50.178;8.186;2023-04-10T08:42:52;11.90;99.90
21176;DHT22;10746;50.178;8.186;2023-04-10T08:45:19;11.80;99.90
21176;DHT22;10746;50.178;8.186;2023-04-10T08:47:47;12.00;99.90
21176;DHT22;10746;50.178;8.186;2023-04-10T08:50:17;11.70;99.90
21176;DHT22;10746;50.178;8.186;2023-04-10T08:52:50;11.50;99.90
21176;DHT22;10746;50.178;8.186;2023-04-10T08:55:17;11.50;99.90
21176;DHT22;10746;50.178;8.186;2023-04-10T08:57:45;11.80;99.90
21176;DHT22;10746;50.178;8.186;2023-04-10T09:00:13;11.80;99.90
21176;DHT22;10746;50.178;8.186;2023-04-10T09:02:40;11.90;99.90
21176;DHT22;10746;50.178;8.186;2023-04-10T09:05:10;12.00;99.90
21176;DHT22;10746;50.178;8.186;2023-04-10T09:07:37;11.80;99.90
21176;DHT22;10746;50.178;8.186;2023-04-10T09:10:07;11.90;99.90
21176;DHT22;10746;50.178;8.186;2023-04-10T09:12:44;11.70;99.90
21176;DHT22;10746;50.178;8.186;2023-04-10T09:15:11;11.60;99.90
21176;DHT22;10746;50.178;8.186;2023-04-10T09:17:53;11.60;99.90
21176;DHT22;10746;50.178;8.186;2023-04-10T09:20:21;11.50;99.90
21176;DHT22;10746;50.178;8.186;2023-04-10T09:22:48;11.50;99.90
21176;DHT22;10746;50.178;8.186;2023-04-10T09:25:30;11.50;99.90
21176;DHT22;10746;50.178;8.186;2023-04-10T09:28:02;11.50;99.90
21176;DHT22;10746;50.178;8.186;2023-04-10T09:30:34;11.60;99.90
21176;DHT22;10746;50.178;8.186;2023-04-10T09:33:01;11.70;99.90
21176;DHT22;10746;50.178;8.186;2023-04-10T09:35:35;11.50;99.90
21176;DHT22;10746;50.178;8.186;2023-04-10T09:38:13;11.50;99.90
21176;DHT22;10746;50.178;8.186;2023-04-10T09:40:41;11.50;99.90
21176;DHT22;10746;50.178;8.186;2023-04-10T09:43:22;11.50;99.90
21176;DHT22;10746;50.178;8.186;2023-04-10T09:45:50;11.40;99.90
21176;DHT22;10746;50.178;8.186;2023-04-10T09:48:18;11.40;99.90
21176;DHT22;10746;50.178;8.186;2023-04-10T09:50:45;11.30;99.90
21176;DHT22;10746;50.178;8.186;2023-04-10T09:53:14;11.30;99.90
21176;DHT22;10746;50.178;8.186;2023-04-10T09:55:42;11.30;99.90
21176;DHT22;10746;50.178;8.186;2023-04-10T09:58:10;11.20;99.90
21176;DHT22;10746;50.178;8.186;2023-04-10T10:00:41;11.20;99.90
21176;DHT22;10746;50.178;8.186;2023-04-10T10:03:10;11.30;99.90
21176;DHT22;10746;50.178;8.186;2023-04-10T10:05:39;11.50;99.90
21176;DHT22;10746;50.178;8.186;2023-04-10T10:08:06;11.70;99.90
21176;DHT22;10746;50.178;8.186;2023-04-10T10:10:36;12.00;99.90
21176;DHT22;10746;50.178;8.186;2023-04-10T10:13:07;12.50;99.90
21176;DHT22;10746;50.178;8.186;2023-04-10T10:15:40;12.60;99.90
21176;DHT22;10746;50.178;8.186;2023-04-10T10:18:12;12.80;99.90
21176;DHT22;10746;50.178;8.186;2023-04-10T10:20:45;12.80;99.90
21176;DHT22;10746;50.178;8.186;2023-04-10T10:23:12;13.10;99.90
21176;DHT22;10746;50.178;8.186;2023-04-10T10:25:42;13.20;99.90
21176;DHT22;10746;50.178;8.186;2023-04-10T10:28:13;12.90;99.90
21176;DHT22;10746;50.178;8.186;2023-04-10T10:30:40;13.20;99.90
21176;DHT22;10746;50.178;8.186;2023-04-10T10:33:07;13.30;99.90
21176;DHT22;10746;50.178;8.186;2023-04-10T10:35:35;13.50;99.90
21176;DHT22;10746;50.178;8.186;2023-04-10T10:38:03;13.70;99.90
21176;DHT22;10746;50.178;8.186;2023-04-10T10:40:32;13.80;99.90
21176;DHT22;10746;50.178;8.186;2023-04-10T10:43:09;13.60;99.90
21176;DHT22;10746;50.178;8.186;2023-04-10T10:45:41;13.50;99.90
21176;DHT22;10746;50.178;8.186;2023-04-10T10:48:12;13.50;99.90
21176;DHT22;10746;50.178;8.186;2023-04-10T10:50:53;13.30;99.90
21176;DHT22;10746;50.178;8.186;2023-04-10T10:53:37;13.50;99.90
21176;DHT22;10746;50.178;8.186;2023-04-10T10:56:32;13.40;99.90
21176;DHT22;10746;50.178;8.186;2023-04-10T10:59:00;13.70;99.90
21176;DHT22;10746;50.178;8.186;2023-04-10T11:01:28;13.80;99.90
21176;DHT22;10746;50.178;8.186;2023-04-10T11:03:55;13.70;99.90
21176;DHT22;10746;50.178;8.186;2023-04-10T11:06:49;13.60;99.90
21176;DHT22;10746;50.178;8.186;2023-04-10T11:09:42;13.50;99.90
21176;DHT22;10746;50.178;8.186;2023-04-10T11:12:10;13.70;99.90
21176;DHT22;10746;50.178;8.186;2023-04-10T11:14:37;13.90;99.90
21176;DHT22;10746;50.178;8.186;2023-04-10T11:17:05;14.00;99.90
21176;DHT22;10746;50.178;8.186;2023-04-10T11:19:56;14.00;99.90
21176;DHT22;10746;50.178;8.186;2023-04-10T11:22:23;14.10;99.90
21176;DHT22;10746;50.178;8.186;2023-04-10T11:24:59;14.00;99.90
21176;DHT22;10746;50.178;8.186;2023-04-10T11:27:41;14.00;99.90
21176;DHT22;10746;50.178;8.186;2023-04-10T11:30:28;13.70;99.90
21176;DHT22;10746;50.178;8.186;2023-04-10T11:32:57;13.70;99.90
21176;DHT22;10746;50.178;8.186;2023-04-10T11:35:25;13.90;99.90
21176;DHT22;10746;50.178;8.186;2023-04-10T11:38:07;14.10;99.90
21176;DHT22;10746;50.178;8.186;2023-04-10T11:40:34;14.00;99.90
21176;DHT22;10746;50.178;8.186;2023-04-10T11:43:11;14.20;99.90
21176;DHT22;10746;50.178;8.186;2023-04-10T11:45:38;14.40;99.90
21176;DHT22;10746;50.178;8.186;2023-04-10T11:48:06;14.30;99.90
21176;DHT22;10746;50.178;8.186;2023-04-10T11:50:33;14.30;99.90
21176;DHT22;10746;50.178;8.186;2023-04-10T11:53:01;14.60;99.90
21176;DHT22;10746;50.178;8.186;2023-04-10T11:55:35;14.40;99.90
21176;DHT22;10746;50.178;8.186;2023-04-10T11:58:03;14.30;99.90
21176;DHT22;10746;50.178;8.186;2023-04-10T12:00:30;14.70;99.90
21176;DHT22;10746;50.178;8.186;2023-04-10T12:02:57;15.10;99.90
21176;DHT22;10746;50.178;8.186;2023-04-10T12:05:25;15.50;99.90
21176;DHT22;10746;50.178;8.186;2023-04-10T12:07:51;15.60;99.90
21176;DHT22;10746;50.178;8.186;2023-04-10T12:10:19;15.80;99.90
21176;DHT22;10746;50.178;8.186;2023-04-10T12:12:46;16.00;99.90
21176;DHT22;10746;50.178;8.186;2023-04-10T12:15:26;16.00;99.90
21176;DHT22;10746;50.178;8.186;2023-04-10T12:17:53;16.10;99.90
21176;DHT22;10746;50.178;8.186;2023-04-10T12:20:21;16.10;99.90
21176;DHT22;10746;50.178;8.186;2023-04-10T12:22:53;15.50;99.90
21176;DHT22;10746;50.178;8.186;2023-04-10T12:25:21;15.70;99.90
21176;DHT22;10746;50.178;8.186;2023-04-10T12:27:48;15.70;99.90
21176;DHT22;10746;50.178;8.186;2023-04-10T12:30:16;15.80;99.90
21176;DHT22;10746;50.178;8.186;2023-04-10T12:32:50;15.70;99.90
21176;DHT22;10746;50.178;8.186;2023-04-10T12:35:18;15.70;99.90
21176;DHT22;10746;50.178;8.186;2023-04-10T12:37:49;15.50;99.90
21176;DHT22;10746;50.178;8.186;2023-04-10T12:40:18;15.20;99.90
21176;DHT22;10746;50.178;8.186;2023-04-10T12:42:46;15.10;99.90
21176;DHT22;10746;50.178;8.186;2023-04-10T12:45:12;14.90;99.90
21176;DHT22;10746;50.178;8.186;2023-04-10T12:47:43;15.10;99.90
21176;DHT22;10746;50.178;8.186;2023-04-10T12:50:12;15.50;99.90
21176;DHT22;10746;50.178;8.186;2023-04-10T12:52:41;15.60;99.90
21176;DHT22;10746;50.178;8.186;2023-04-10T12:55:12;16.00;99.90
21176;DHT22;10746;50.178;8.186;2023-04-10T12:57:42;15.50;99.90
21176;DHT22;10746;50.178;8.186;2023-04-10T13:00:12;15.30;99.90
21176;DHT22;10746;50.178;8.186;2023-04-10T13:02:39;15.50;99.90
21176;DHT22;10746;50.178;8.186;2023-04-10T13:05:07;15.20;99.90
21176;DHT22;10746;50.178;8.186;2023-04-10T13:07:35;14.90;99.90
21176;DHT22;10746;50.178;8.186;2023-04-10T13:10:02;14.70;99.90
21176;DHT22;10746;50.178;8.186;2023-04-10T13:12:30;14.30;99.90
21176;DHT22;10746;50.178;8.186;2023-04-10T13:14:58;14.40;99.90
21176;DHT22;10746;50.178;8.186;2023-04-10T13:17:26;14.30;99.90
21176;DHT22;10746;50.178;8.186;2023-04-10T13:19:53;14.60;99.90
21176;DHT22;10746;50.178;8.186;2023-04-10T13:22:20;14.80;99.90
21176;DHT22;10746;50.178;8.186;2023-04-10T13:24:47;14.40;99.90
21176;DHT22;10746;50.178;8.186;2023-04-10T13:27:13;14.70;99.90
21176;DHT22;10746;50.178;8.186;2023-04-10T13:29:41;14.90;99.90
21176;DHT22;10746;50.178;8.186;2023-04-10T13:32:09;15.20;99.90
21176;DHT22;10746;50.178;8.186;2023-04-10T13:34:36;15.50;99.90
21176;DHT22;10746;50.178;8.186;2023-04-10T13:37:03;15.70;99.90
21176;DHT22;10746;50.178;8.186;2023-04-10T13:39:30;15.50;99.90
21176;DHT22;10746;50.178;8.186;2023-04-10T13:41:58;15.40;99.90
21176;DHT22;10746;50.178;8.186;2023-04-10T13:44:26;15.20;99.90
21176;DHT22;10746;50.178;8.186;2023-04-10T13:46:53;15.60;99.90
21176;DHT22;10746;50.178;8.186;2023-04-10T13:49:21;16.00;99.90
21176;DHT22;10746;50.178;8.186;2023-04-10T13:51:48;15.60;99.90
21176;DHT22;10746;50.178;8.186;2023-04-10T13:54:15;15.40;99.90
21176;DHT22;10746;50.178;8.186;2023-04-10T13:56:42;15.40;99.90
21176;DHT22;10746;50.178;8.186;2023-04-10T13:59:09;15.40;99.90
21176;DHT22;10746;50.178;8.186;2023-04-10T14:01:35;15.60;99.90
21176;DHT22;10746;50.178;8.186;2023-04-10T14:04:02;15.50;99.90
21176;DHT22;10746;50.178;8.186;2023-04-10T14:06:30;15.90;99.90
21176;DHT22;10746;50.178;8.186;2023-04-10T14:08:57;16.20;99.90
21176;DHT22;10746;50.178;8.186;2023-04-10T14:11:24;16.40;99.90
21176;DHT22;10746;50.178;8.186;2023-04-10T14:13:51;16.50;99.90
21176;DHT22;10746;50.178;8.186;2023-04-10T14:16:18;16.30;99.90
21176;DHT22;10746;50.178;8.186;2023-04-10T14:18:45;16.20;99.90
21176;DHT22;10746;50.178;8.186;2023-04-10T14:21:11;15.90;99.90
21176;DHT22;10746;50.178;8.186;2023-04-10T14:23:40;15.80;99.90
21176;DHT22;10746;50.178;8.186;2023-04-10T14:26:06;15.40;99.90
21176;DHT22;10746;50.178;8.186;2023-04-10T14:28:33;15.00;99.90
21176;DHT22;10746;50.178;8.186;2023-04-10T14:31:00;14.80;99.90
21176;DHT22;10746;50.178;8.186;2023-04-10T14:33:27;14.70;99.90
21176;DHT22;10746;50.178;8.186;2023-04-10T14:35:54;14.70;99.90
21176;DHT22;10746;50.178;8.186;2023-04-10T14:38:21;14.50;99.90
21176;DHT22;10746;50.178;8.186;2023-04-10T14:40:49;14.60;99.90
21176;DHT22;10746;50.178;8.186;2023-04-10T14:43:16;14.60;99.90
21176;DHT22;10746;50.178;8.186;2023-04-10T14:45:44;14.50;99.90
21176;DHT22;10746;50.178;8.186;2023-04-10T14:48:11;14.60;99.90
21176;DHT22;10746;50.178;8.186;2023-04-10T14:50:38;14.50;99.90
21176;DHT22;10746;50.178;8.186;2023-04-10T14:53:04;14.60;99.90
21176;DHT22;10746;50.178;8.186;2023-04-10T14:55:34;14.50;99.90
21176;DHT22;10746;50.178;8.186;2023-04-10T14:58:02;14.60;99.90
21176;DHT22;10746;50.178;8.186;2023-04-10T15:00:31;14.80;99.90
21176;DHT22;10746;50.178;8.186;2023-04-10T15:02:58;15.00;99.90
21176;DHT22;10746;50.178;8.186;2023-04-10T15:05:25;15.20;99.90
21176;DHT22;10746;50.178;8.186;2023-04-10T15:07:52;15.60;99.90
21176;DHT22;10746;50.178;8.186;2023-04-10T15:10:19;15.70;99.90
21176;DHT22;10746;50.178;8.186;2023-04-10T15:12:45;15.90;99.90
21176;DHT22;10746;50.178;8.186;2023-04-10T15:15:14;15.70;99.90
21176;DHT22;10746;50.178;8.186;2023-04-10T15:17:40;15.60;99.90
21176;DHT22;10746;50.178;8.186;2023-04-10T15:20:08;15.70;99.90
21176;DHT22;10746;50.178;8.186;2023-04-10T15:22:35;15.70;99.90
21176;DHT22;10746;50.178;8.186;2023-04-10T15:25:02;15.70;99.90
21176;DHT22;10746;50.178;8.186;2023-04-10T15:27:29;15.50;99.90
21176;DHT22;10746;50.178;8.186;2023-04-10T15:29:56;15.40;99.90
21176;DHT22;10746;50.178;8.186;2023-04-10T15:32:24;15.50;99.90
21176;DHT22;10746;50.178;8.186;2023-04-10T15:34:50;15.50;99.90
21176;DHT22;10746;50.178;8.186;2023-04-10T15:37:17;15.40;99.90
21176;DHT22;10746;50.178;8.186;2023-04-10T15:39:44;15.10;99.90
21176;DHT22;10746;50.178;8.186;2023-04-10T15:42:11;14.90;99.90
21176;DHT22;10746;50.178;8.186;2023-04-10T15:44:40;14.80;99.90